To NAV CANADA Home Page Login to a new session Search on AWWS site Feedback and Comments Disclaimer Vers la page française équivalente Tips FAQ What's new on the site To the Forecasts and Observations / NOTAM section To "File a Flight Plan" website Publications and other links Update of the User's profile FIC Telephone Numbers My Weather Data Folder Route Weather Data Regional Weather Data Local Weather Data To the Forecasts and Observations / NOTAM section
Request Generated 05/22/2015 at 22:05:27 UTC . Weather information available at that time is displayed.

METAR/TAF

STONY RAPIDS/SK    (show WxCam)

METAR CYSF 222200Z AUTO 03012KT 360V090 9SM CLR 16/02 A3007 RMK
SLP194 DENSITY ALT 900FT=
METAR CYSF 222100Z AUTO 06010KT 9SM FEW100 SCT130 16/03 A3006 RMK
PRESRR SLP188 DENSITY ALT 900FT=
METAR CYSF 222000Z AUTO 04011G18KT 020V080 9SM FEW110 17/03 A3004 RMK
PRESRR SLP181 DENSITY ALT 1100FT=

TAF CYSF 221738Z 2218/2306 VRB03KT P6SM FEW090 TEMPO 2218/2224 BKN090
BECMG 2219/2221 08008KT
FM230000 05007KT P6SM SKC
RMK FCST BASED ON AUTO OBS. NXT FCST BY 230000Z=
Your time UTC time
Weather data provided by Environment Canada and NAV CANADA